Newell, West Virginia
Current Conditions -  °F | °C
As of 4:47 PM on Wednesday 28 Jan 2015 (Local Time) from KBVI Reporting Station
Clear Clear  
Wind Chill: 19°   Ceiling: Unl
Heat Index: 25°   Visibility: 10mi
Dew Point:   Wind: 5mph
Humidity: 43%   Direction: 230°SW
Pressure: 30.29"   Gusts: NA
Location:  40.62°N, 80.61°W
Report Text: KBVI 282147Z 23004KT 10SM CLR M04/M15 A3029
Loading
Personal Weather Stations






























Interactive Weather Map New forecast layout! Learn more

10-Day Weather Forecast

Advertisements
Track Severe Weather on mobile